createdAt,value
2023-03-27T00:02:26.399Z,100.00
2023-03-27T00:04:54.823Z,100.00
2023-03-27T00:07:22.813Z,100.00
2023-03-27T00:09:53.605Z,100.00
2023-03-27T00:12:22.026Z,100.00
2023-03-27T00:14:55.648Z,100.00
2023-03-27T00:17:25.232Z,100.00
2023-03-27T00:19:53.638Z,100.00
2023-03-27T00:22:21.002Z,100.00
2023-03-27T00:24:48.376Z,100.00
2023-03-27T00:27:18.487Z,100.00
2023-03-27T00:29:48.027Z,100.00
2023-03-27T00:32:15.471Z,100.00
2023-03-27T00:34:44.922Z,100.00
2023-03-27T00:37:16.843Z,100.00
2023-03-27T00:39:44.111Z,100.00
2023-03-27T00:42:15.214Z,100.00
2023-03-27T00:44:42.697Z,100.00
2023-03-27T00:47:12.919Z,100.00
2023-03-27T00:49:40.235Z,100.00
2023-03-27T00:52:08.856Z,100.00
2023-03-27T00:54:39.091Z,100.00
2023-03-27T00:57:12.878Z,100.00
2023-03-27T00:59:43.406Z,100.00
2023-03-27T01:02:19.958Z,100.00
2023-03-27T01:04:49.324Z,100.00
2023-03-27T01:07:26.337Z,100.00
2023-03-27T01:09:56.579Z,100.00
2023-03-27T01:12:39.332Z,100.00
2023-03-27T01:15:41.683Z,100.00
2023-03-27T01:18:42.324Z,100.00
2023-03-27T01:21:43.226Z,100.00
2023-03-27T01:25:04.548Z,100.00
2023-03-27T01:27:51.707Z,100.00
2023-03-27T01:30:46.687Z,100.00
2023-03-27T01:34:06.265Z,100.00
2023-03-27T01:36:48.446Z,100.00
2023-03-27T01:39:43.566Z,100.00
2023-03-27T01:42:49.535Z,100.00
2023-03-27T01:45:21.947Z,100.00
2023-03-27T01:48:07.466Z,100.00
2023-03-27T01:50:55.314Z,100.00
2023-03-27T01:53:58.044Z,100.00
2023-03-27T01:56:37.670Z,100.00
2023-03-27T01:59:16.593Z,100.00
2023-03-27T02:01:59.401Z,100.00
2023-03-27T02:04:41.015Z,100.00
2023-03-27T02:07:18.853Z,100.00
2023-03-27T02:09:55.531Z,100.00
2023-03-27T02:12:35.176Z,100.00
2023-03-27T02:15:35.413Z,100.00
2023-03-27T02:18:14.654Z,100.00
2023-03-27T02:20:42.283Z,100.00
2023-03-27T02:23:23.228Z,100.00
2023-03-27T02:25:54.552Z,100.00
2023-03-27T02:28:51.796Z,100.00
2023-03-27T02:31:53.026Z,100.00
2023-03-27T02:35:37.319Z,100.00
2023-03-27T02:38:28.933Z,100.00
2023-03-27T02:41:20.437Z,100.00
2023-03-27T02:43:56.593Z,100.00
2023-03-27T02:46:50.862Z,100.00
2023-03-27T02:49:32.895Z,100.00
2023-03-27T02:52:10.016Z,100.00
2023-03-27T02:54:49.609Z,100.00
2023-03-27T02:57:27.276Z,100.00
2023-03-27T03:00:00.849Z,100.00
2023-03-27T03:02:33.985Z,100.00
2023-03-27T03:05:15.085Z,100.00
2023-03-27T03:07:42.632Z,100.00
2023-03-27T03:10:11.887Z,100.00
2023-03-27T03:12:39.605Z,100.00
2023-03-27T03:15:08.699Z,100.00
2023-03-27T03:17:36.031Z,100.00
2023-03-27T03:20:05.483Z,100.00
2023-03-27T03:22:38.216Z,100.00
2023-03-27T03:25:13.883Z,100.00
2023-03-27T03:27:44.450Z,100.00
2023-03-27T03:30:16.543Z,100.00
2023-03-27T03:32:44.820Z,100.00
2023-03-27T03:35:13.873Z,100.00
2023-03-27T03:37:41.222Z,100.00
2023-03-27T03:40:12.121Z,100.00
2023-03-27T03:42:51.500Z,100.00
2023-03-27T03:45:19.952Z,100.00
2023-03-27T03:47:47.803Z,100.00
2023-03-27T03:50:15.445Z,100.00
2023-03-27T03:52:43.495Z,100.00
2023-03-27T03:55:25.843Z,100.00
2023-03-27T03:57:53.026Z,100.00
2023-03-27T04:00:20.388Z,100.00
2023-03-27T04:02:52.292Z,100.00
2023-03-27T04:05:21.048Z,100.00
2023-03-27T04:07:49.934Z,100.00
2023-03-27T04:10:21.066Z,100.00
2023-03-27T04:12:49.607Z,100.00
2023-03-27T04:15:20.542Z,100.00
2023-03-27T04:17:48.760Z,100.00
2023-03-27T04:20:18.574Z,100.00
2023-03-27T04:22:48.866Z,100.00
2023-03-27T04:25:26.426Z,100.00
2023-03-27T04:27:53.660Z,100.00
2023-03-27T04:30:25.495Z,100.00
2023-03-27T04:32:54.721Z,100.00
2023-03-27T04:35:22.244Z,100.00
2023-03-27T04:37:57.308Z,100.00
2023-03-27T04:40:25.750Z,100.00
2023-03-27T04:42:56.090Z,100.00
2023-03-27T04:45:26.008Z,100.00
2023-03-27T04:47:54.736Z,100.00
2023-03-27T04:50:22.170Z,100.00
2023-03-27T04:52:50.551Z,100.00
2023-03-27T04:55:26.160Z,100.00
2023-03-27T04:57:57.668Z,100.00
2023-03-27T05:00:25.867Z,100.00
2023-03-27T05:02:56.318Z,100.00
2023-03-27T05:05:25.244Z,100.00
2023-03-27T05:07:55.171Z,100.00
2023-03-27T05:10:22.657Z,100.00
2023-03-27T05:12:52.547Z,100.00
2023-03-27T05:15:22.111Z,100.00
2023-03-27T05:17:57.703Z,100.00
2023-03-27T05:20:25.660Z,100.00
2023-03-27T05:23:02.469Z,100.00
2023-03-27T05:25:31.344Z,100.00
2023-03-27T05:30:43.216Z,100.00
2023-03-27T05:33:14.130Z,100.00
2023-03-27T05:35:48.449Z,100.00
2023-03-27T05:38:17.210Z,100.00
2023-03-27T05:40:44.660Z,100.00
2023-03-27T05:43:11.985Z,100.00
2023-03-27T05:45:43.534Z,100.00
2023-03-27T05:48:13.592Z,100.00
2023-03-27T05:50:41.855Z,100.00
2023-03-27T05:53:11.217Z,100.00
2023-03-27T05:55:50.623Z,100.00
2023-03-27T05:58:30.744Z,100.00
2023-03-27T06:00:58.172Z,100.00
2023-03-27T06:03:25.913Z,100.00
2023-03-27T06:05:53.328Z,100.00
2023-03-27T06:08:23.585Z,100.00
2023-03-27T06:10:54.845Z,100.00
2023-03-27T06:13:22.115Z,100.00
2023-03-27T06:15:51.841Z,100.00
2023-03-27T06:18:21.362Z,100.00
2023-03-27T06:20:48.597Z,100.00
2023-03-27T06:23:18.546Z,100.00
2023-03-27T06:25:47.599Z,100.00
2023-03-27T06:28:15.003Z,100.00
2023-03-27T06:30:42.509Z,100.00
2023-03-27T06:33:10.440Z,100.00
2023-03-27T06:35:38.142Z,100.00
2023-03-27T06:38:17.026Z,100.00
2023-03-27T06:40:45.168Z,100.00
2023-03-27T06:43:14.277Z,100.00
2023-03-27T06:45:49.302Z,100.00
2023-03-27T06:48:21.306Z,100.00
2023-03-27T06:50:52.157Z,100.00
2023-03-27T06:55:51.072Z,100.00
2023-03-27T06:58:19.381Z,100.00
2023-03-27T07:00:49.742Z,100.00
2023-03-27T07:03:19.381Z,100.00
2023-03-27T07:05:46.783Z,100.00
2023-03-27T07:10:56.363Z,100.00
2023-03-27T07:13:36.273Z,100.00
2023-03-27T07:16:04.633Z,100.00
2023-03-27T07:18:32.148Z,100.00
2023-03-27T07:20:59.415Z,100.00
2023-03-27T07:23:27.090Z,100.00
2023-03-27T07:26:01.911Z,100.00
2023-03-27T07:28:29.320Z,100.00
2023-03-27T07:30:56.779Z,100.00
2023-03-27T07:33:24.436Z,100.00
2023-03-27T07:35:51.981Z,100.00
2023-03-27T07:38:19.145Z,100.00
2023-03-27T07:40:46.684Z,100.00
2023-03-27T07:43:17.630Z,100.00
2023-03-27T07:46:05.099Z,100.00
2023-03-27T07:48:36.328Z,100.00
2023-03-27T07:51:13.764Z,100.00
2023-03-27T07:53:41.875Z,100.00
2023-03-27T07:56:09.461Z,100.00
2023-03-27T07:58:37.206Z,100.00
2023-03-27T08:01:04.928Z,100.00
2023-03-27T08:03:32.463Z,100.00
2023-03-27T08:06:01.357Z,100.00
2023-03-27T08:08:29.715Z,100.00
2023-03-27T08:11:27.416Z,100.00
2023-03-27T08:13:57.314Z,100.00
2023-03-27T08:16:28.323Z,100.00
2023-03-27T08:18:55.884Z,100.00
2023-03-27T08:21:24.009Z,100.00
2023-03-27T08:23:51.347Z,100.00
2023-03-27T08:26:18.843Z,100.00
2023-03-27T08:28:59.060Z,100.00
2023-03-27T08:31:29.375Z,100.00
2023-03-27T08:33:56.741Z,100.00
2023-03-27T08:36:24.719Z,100.00
2023-03-27T08:38:55.390Z,100.00
2023-03-27T08:41:46.999Z,100.00
2023-03-27T08:44:18.945Z,100.00
2023-03-27T08:47:13.618Z,100.00
2023-03-27T08:49:53.649Z,100.00
2023-03-27T08:52:24.097Z,100.00
2023-03-27T08:55:25.592Z,100.00
2023-03-27T08:57:53.418Z,100.00
2023-03-27T09:00:32.131Z,100.00
2023-03-27T09:03:11.366Z,100.00
2023-03-27T09:06:02.248Z,100.00
2023-03-27T09:08:55.598Z,100.00
2023-03-27T09:11:44.870Z,100.00
2023-03-27T09:14:31.746Z,100.00
2023-03-27T09:17:11.496Z,100.00
2023-03-27T09:20:06.252Z,100.00
2023-03-27T09:22:48.582Z,100.00
2023-03-27T09:25:25.044Z,100.00
2023-03-27T09:27:53.701Z,94.88
2023-03-27T09:30:35.004Z,100.00
2023-03-27T09:33:07.100Z,100.00
2023-03-27T09:35:41.311Z,100.00
2023-03-27T09:38:35.239Z,100.00
2023-03-27T09:41:24.296Z,100.00
2023-03-27T09:44:09.175Z,100.00
2023-03-27T09:46:44.463Z,100.00
2023-03-27T09:49:29.858Z,100.00
2023-03-27T09:52:00.289Z,100.00
2023-03-27T09:54:32.253Z,100.00
2023-03-27T09:57:29.854Z,100.00
2023-03-27T10:00:28.750Z,100.00
2023-03-27T10:03:04.027Z,100.00
2023-03-27T10:05:35.418Z,100.00
2023-03-27T10:08:32.881Z,100.00
2023-03-27T10:11:00.209Z,100.00
2023-03-27T10:13:29.636Z,100.00
2023-03-27T10:19:52.377Z,100.00
2023-03-27T10:22:29.629Z,100.00
2023-03-27T10:25:01.680Z,100.00
2023-03-27T10:27:37.300Z,100.00
2023-03-27T10:30:35.353Z,100.00
2023-03-27T10:33:03.474Z,100.00
2023-03-27T10:35:38.125Z,100.00
2023-03-27T10:38:18.460Z,100.00
2023-03-27T10:40:51.844Z,100.00
2023-03-27T10:43:43.958Z,100.00
2023-03-27T10:46:24.130Z,100.00
2023-03-27T10:49:22.479Z,100.00
2023-03-27T10:52:31.224Z,100.00
2023-03-27T10:55:01.497Z,88.40
2023-03-27T10:57:37.800Z,74.51
2023-03-27T11:00:39.066Z,84.78
2023-03-27T11:03:43.973Z,100.00
2023-03-27T11:06:19.501Z,100.00
2023-03-27T11:09:05.895Z,100.00
2023-03-27T11:11:45.355Z,100.00
2023-03-27T11:14:24.561Z,100.00
2023-03-27T11:17:16.196Z,100.00
2023-03-27T11:20:00.467Z,100.00
2023-03-27T11:22:42.277Z,100.00
2023-03-27T11:25:29.975Z,79.54
2023-03-27T11:28:36.621Z,71.41
2023-03-27T11:31:38.233Z,100.00
2023-03-27T11:34:36.638Z,100.00
2023-03-27T11:37:32.177Z,100.00
2023-03-27T11:40:09.683Z,100.00
2023-03-27T11:42:44.059Z,100.00
2023-03-27T11:45:23.137Z,100.00
2023-03-27T11:48:56.977Z,100.00
2023-03-27T11:51:42.610Z,100.00
2023-03-27T11:54:40.843Z,100.00
2023-03-27T11:57:26.007Z,93.84
2023-03-27T12:00:07.067Z,100.00
2023-03-27T12:03:06.289Z,100.00
2023-03-27T12:06:14.286Z,100.00
2023-03-27T12:09:03.967Z,100.00
2023-03-27T12:11:31.943Z,100.00
2023-03-27T12:18:05.622Z,100.00
2023-03-27T12:20:54.829Z,100.00
2023-03-27T12:23:54.224Z,100.00
2023-03-27T12:26:45.967Z,100.00
2023-03-27T12:30:07.035Z,100.00
2023-03-27T12:32:55.350Z,100.00
2023-03-27T12:35:32.197Z,100.00
2023-03-27T12:38:05.772Z,100.00
2023-03-27T12:40:39.969Z,100.00
2023-03-27T12:43:31.997Z,100.00
2023-03-27T12:46:18.929Z,100.00
2023-03-27T12:49:20.386Z,100.00
2023-03-27T12:52:05.046Z,100.00
2023-03-27T12:54:42.640Z,100.00
2023-03-27T12:57:25.126Z,100.00
2023-03-27T13:00:18.654Z,100.00
2023-03-27T13:03:18.585Z,100.00
2023-03-27T13:06:17.611Z,100.00
2023-03-27T13:09:17.014Z,100.00
2023-03-27T13:12:25.386Z,100.00
2023-03-27T13:15:18.578Z,100.00
2023-03-27T13:18:23.806Z,100.00
2023-03-27T13:21:47.524Z,100.00
2023-03-27T13:25:00.123Z,100.00
2023-03-27T13:28:10.274Z,100.00
2023-03-27T13:30:54.525Z,100.00
2023-03-27T13:33:42.433Z,100.00
2023-03-27T13:36:36.629Z,100.00
2023-03-27T13:39:06.093Z,100.00
2023-03-27T13:41:45.379Z,100.00
2023-03-27T13:44:30.503Z,100.00
2023-03-27T13:47:54.748Z,100.00
2023-03-27T13:50:49.289Z,100.00
2023-03-27T13:53:53.497Z,100.00
2023-03-27T13:56:58.291Z,100.00
2023-03-27T13:59:52.642Z,100.00
2023-03-27T14:02:48.526Z,100.00
2023-03-27T14:05:37.471Z,100.00
2023-03-27T14:08:51.644Z,100.00
2023-03-27T14:11:23.845Z,100.00
2023-03-27T14:14:18.829Z,100.00
2023-03-27T14:17:06.718Z,100.00
2023-03-27T14:20:08.292Z,100.00
2023-03-27T14:23:06.013Z,100.00
2023-03-27T14:25:39.962Z,100.00
2023-03-27T14:28:10.522Z,100.00
2023-03-27T14:30:52.328Z,100.00
2023-03-27T14:33:21.994Z,100.00
2023-03-27T14:36:02.482Z,100.00
2023-03-27T14:38:47.925Z,100.00
2023-03-27T14:41:22.079Z,100.00
2023-03-27T14:43:52.340Z,100.00
2023-03-27T14:46:27.084Z,100.00
2023-03-27T14:49:00.042Z,100.00
2023-03-27T14:51:48.479Z,100.00
2023-03-27T14:54:36.788Z,100.00
2023-03-27T14:57:14.516Z,100.00
2023-03-27T15:00:09.355Z,100.00
2023-03-27T15:02:44.631Z,100.00
2023-03-27T15:06:14.375Z,100.00
2023-03-27T15:08:48.411Z,100.00
2023-03-27T15:11:21.817Z,100.00
2023-03-27T15:13:52.345Z,100.00
2023-03-27T15:16:34.712Z,100.00
2023-03-27T15:19:19.948Z,100.00
2023-03-27T15:22:15.099Z,100.00
2023-03-27T15:25:19.893Z,100.00
2023-03-27T15:29:01.669Z,100.00
2023-03-27T15:31:37.171Z,100.00
2023-03-27T15:34:37.592Z,100.00
2023-03-27T15:37:33.822Z,100.00
2023-03-27T15:43:34.276Z,100.00
2023-03-27T15:46:26.866Z,100.00
2023-03-27T15:54:32.520Z,100.00
2023-03-27T15:57:15.913Z,100.00
2023-03-27T16:00:14.807Z,100.00
2023-03-27T16:02:43.740Z,100.00
2023-03-27T16:05:18.319Z,100.00
2023-03-27T16:07:50.268Z,100.00
2023-03-27T16:10:49.688Z,100.00
2023-03-27T16:14:08.995Z,100.00
2023-03-27T16:17:47.468Z,100.00
2023-03-27T16:23:40.607Z,100.00
2023-03-27T16:26:42.949Z,87.12
2023-03-27T16:36:44.127Z,88.04
2023-03-27T16:39:11.620Z,94.73
2023-03-27T16:41:42.413Z,94.18
2023-03-27T16:44:09.694Z,92.63
2023-03-27T16:47:00.899Z,79.29
2023-03-27T16:49:36.262Z,73.22
2023-03-27T16:52:22.527Z,79.25
2023-03-27T16:54:57.534Z,71.13
2023-03-27T16:57:25.792Z,80.70
2023-03-27T16:59:57.756Z,78.52
2023-03-27T17:02:29.005Z,76.91
2023-03-27T17:05:55.579Z,80.30
2023-03-27T17:09:02.620Z,72.93
2023-03-27T17:11:51.290Z,76.35
2023-03-27T17:14:46.408Z,79.91
2023-03-27T17:20:48.169Z,71.50
2023-03-27T17:24:25.869Z,65.84
2023-03-27T17:27:40.490Z,100.00
2023-03-27T17:30:11.421Z,100.00
2023-03-27T17:38:39.252Z,100.00
2023-03-27T17:40:10.017Z,100.00
2023-03-27T17:45:06.537Z,100.00
2023-03-27T17:53:15.755Z,100.00
2023-03-27T17:56:16.856Z,100.00
2023-03-27T17:59:23.307Z,100.00
2023-03-27T18:02:30.808Z,100.00
2023-03-27T18:05:38.373Z,100.00
2023-03-27T18:08:30.252Z,100.00
2023-03-27T18:11:41.027Z,100.00
2023-03-27T18:15:45.125Z,100.00
2023-03-27T18:23:38.034Z,100.00
2023-03-27T18:26:26.095Z,100.00
2023-03-27T18:29:40.365Z,100.00
2023-03-27T18:32:28.217Z,100.00
2023-03-27T18:35:24.733Z,100.00
2023-03-27T18:46:14.090Z,100.00
2023-03-27T18:49:10.215Z,100.00
2023-03-27T18:53:04.885Z,100.00
2023-03-27T19:04:50.552Z,100.00
2023-03-27T19:07:45.487Z,100.00
2023-03-27T19:12:05.947Z,100.00
2023-03-27T19:14:39.173Z,100.00
2023-03-27T19:17:29.218Z,100.00
2023-03-27T19:21:02.549Z,100.00
2023-03-27T19:24:03.438Z,100.00
2023-03-27T19:27:44.906Z,100.00
2023-03-27T19:35:16.477Z,100.00
2023-03-27T19:45:28.038Z,100.00
2023-03-27T20:03:52.563Z,100.00
2023-03-27T20:06:22.275Z,100.00
2023-03-27T20:14:21.885Z,100.00
2023-03-27T20:28:03.714Z,100.00
2023-03-27T20:30:57.554Z,100.00
2023-03-27T20:36:39.730Z,100.00
2023-03-27T20:42:15.302Z,100.00
2023-03-27T20:45:26.886Z,100.00
2023-03-27T20:52:07.314Z,100.00
2023-03-27T21:01:44.261Z,100.00
2023-03-27T21:04:26.758Z,100.00
2023-03-27T21:07:49.197Z,100.00
2023-03-27T21:14:41.987Z,100.00
2023-03-27T21:17:59.666Z,100.00
2023-03-27T21:29:38.026Z,100.00
2023-03-27T23:14:42.219Z,100.00
2023-03-27T23:17:52.001Z,100.00
2023-03-27T23:20:48.333Z,100.00
2023-03-27T23:23:42.559Z,100.00
2023-03-27T23:26:46.516Z,100.00
2023-03-27T23:29:42.459Z,100.00
2023-03-27T23:33:01.460Z,100.00
2023-03-27T23:39:42.037Z,100.00
2023-03-27T23:42:21.607Z,100.00
2023-03-27T23:44:51.654Z,100.00
2023-03-27T23:47:26.142Z,100.00
2023-03-27T23:50:26.171Z,100.00
